createdAt,value
2023-02-15T00:02:07.566Z,23.08
2023-02-15T00:05:03.457Z,22.27
2023-02-15T00:07:52.546Z,22.67
2023-02-15T00:10:34.639Z,23.08
2023-02-15T00:13:24.553Z,23.45
2023-02-15T00:16:09.696Z,22.48
2023-02-15T00:19:00.475Z,23.63
2023-02-15T00:21:43.717Z,21.42
2023-02-15T00:24:32.458Z,21.48
2023-02-15T00:27:14.774Z,24.55
2023-02-15T00:30:04.501Z,22.17
2023-02-15T00:32:46.734Z,21.55
2023-02-15T00:35:34.470Z,22.70
2023-02-15T00:38:16.706Z,21.70
2023-02-15T00:41:06.471Z,22.85
2023-02-15T00:43:55.463Z,23.27
2023-02-15T00:46:39.892Z,22.67
2023-02-15T00:49:28.553Z,20.48
2023-02-15T00:52:10.487Z,21.85
2023-02-15T00:54:59.481Z,22.63
2023-02-15T00:57:41.449Z,19.35
2023-02-15T01:00:30.481Z,22.63
2023-02-15T01:03:15.871Z,21.58
2023-02-15T01:06:05.473Z,24.20
2023-02-15T01:08:55.586Z,22.05
2023-02-15T01:11:38.731Z,22.98
2023-02-15T01:14:26.530Z,22.65
2023-02-15T01:17:08.717Z,23.30
2023-02-15T01:19:58.546Z,22.00
2023-02-15T01:22:40.728Z,20.98
2023-02-15T01:25:30.507Z,21.67
2023-02-15T01:28:12.688Z,21.85
2023-02-15T01:31:21.584Z,21.38
2023-02-15T01:34:10.504Z,22.45
2023-02-15T01:36:53.855Z,21.15
2023-02-15T01:39:42.595Z,21.08
2023-02-15T01:42:27.206Z,21.10
2023-02-15T01:45:18.601Z,20.50
2023-02-15T01:48:04.027Z,21.45
2023-02-15T01:50:54.507Z,21.77
2023-02-15T01:53:44.768Z,20.05
2023-02-15T01:56:37.514Z,20.85
2023-02-15T01:59:30.572Z,21.85
2023-02-15T02:02:15.809Z,19.33
2023-02-15T02:05:10.533Z,19.80
2023-02-15T02:07:55.738Z,19.98
2023-02-15T02:13:27.684Z,19.92
2023-02-15T02:16:22.708Z,18.88
2023-02-15T02:19:34.504Z,19.42
2023-02-15T02:22:50.572Z,18.98
2023-02-15T02:26:22.510Z,18.65
2023-02-15T02:29:35.335Z,21.02
2023-02-15T02:36:04.564Z,20.27
2023-02-15T02:38:56.891Z,20.17
2023-02-15T02:41:52.504Z,20.13
2023-02-15T02:44:40.611Z,20.85
2023-02-15T02:47:33.535Z,21.55
2023-02-15T02:50:17.753Z,20.17
2023-02-15T02:53:08.520Z,22.02
2023-02-15T02:55:55.704Z,21.25
2023-02-15T02:58:48.518Z,21.48
2023-02-15T03:01:42.696Z,21.08
2023-02-15T03:04:28.568Z,20.88
2023-02-15T03:07:21.591Z,21.52
2023-02-15T03:10:07.352Z,20.95
2023-02-15T03:18:50.580Z,20.08
2023-02-15T03:21:46.533Z,19.80
2023-02-15T03:24:32.777Z,21.10
2023-02-15T03:27:26.622Z,20.58
2023-02-15T03:30:12.779Z,21.05
2023-02-15T03:33:01.517Z,21.98
2023-02-15T03:35:51.749Z,21.42
2023-02-15T03:38:47.580Z,21.17
2023-02-15T03:41:34.814Z,21.70
2023-02-15T03:44:31.540Z,20.52
2023-02-15T03:47:24.573Z,20.63
2023-02-15T03:50:30.596Z,20.90
2023-02-15T03:53:23.567Z,21.08
2023-02-15T03:56:05.920Z,21.48
2023-02-15T03:59:11.553Z,21.63
2023-02-15T04:02:07.825Z,20.65
2023-02-15T04:05:00.563Z,22.15
2023-02-15T04:07:48.751Z,22.08
2023-02-15T04:10:48.555Z,21.00
2023-02-15T04:13:40.552Z,21.08
2023-02-15T04:16:21.728Z,20.33
2023-02-15T04:19:28.558Z,21.08
2023-02-15T04:22:28.385Z,21.27
2023-02-15T04:25:20.547Z,21.30
2023-02-15T04:28:03.774Z,21.10
2023-02-15T04:30:51.597Z,21.02
2023-02-15T04:33:33.827Z,22.65
2023-02-15T04:36:23.597Z,21.30
2023-02-15T04:39:05.778Z,22.70
2023-02-15T04:41:55.594Z,23.42
2023-02-15T04:44:44.523Z,20.70
2023-02-15T04:47:26.715Z,20.33
2023-02-15T04:50:15.544Z,21.63
2023-02-15T04:52:58.959Z,21.35
2023-02-15T04:55:47.552Z,23.55
2023-02-15T04:58:29.514Z,21.25
2023-02-15T05:01:18.665Z,22.80
2023-02-15T05:04:00.590Z,23.08
2023-02-15T05:06:49.554Z,22.83
2023-02-15T05:09:32.800Z,22.38
2023-02-15T05:12:21.654Z,21.67
2023-02-15T05:15:03.553Z,21.15
2023-02-15T05:17:52.557Z,24.50
2023-02-15T05:20:34.514Z,22.80
2023-02-15T05:23:23.539Z,23.08
2023-02-15T05:26:24.164Z,22.45
2023-02-15T05:29:12.553Z,28.15
2023-02-15T05:31:54.684Z,23.70
2023-02-15T05:34:43.642Z,23.65
2023-02-15T05:37:38.611Z,21.48
2023-02-15T05:40:20.637Z,23.45
2023-02-15T05:43:11.558Z,21.58
2023-02-15T05:45:55.070Z,21.58
2023-02-15T05:48:43.563Z,23.35
2023-02-15T05:51:25.514Z,22.23
2023-02-15T05:54:14.654Z,22.23
2023-02-15T05:56:56.686Z,22.85
2023-02-15T05:59:46.592Z,23.15
2023-02-15T06:02:41.699Z,21.38
2023-02-15T06:05:36.653Z,21.65
2023-02-15T06:08:25.688Z,21.98
2023-02-15T06:11:07.859Z,23.73
2023-02-15T06:13:55.653Z,23.63
2023-02-15T06:16:38.829Z,23.27
2023-02-15T06:19:27.653Z,20.92
2023-02-15T06:22:09.821Z,23.45
2023-02-15T06:24:57.580Z,20.40
2023-02-15T06:27:46.684Z,23.08
2023-02-15T06:30:28.614Z,22.38
2023-02-15T06:33:18.616Z,21.45
2023-02-15T06:36:00.778Z,22.73
2023-02-15T06:38:49.598Z,21.67
2023-02-15T06:41:31.582Z,23.67
2023-02-15T06:44:20.630Z,24.40
2023-02-15T06:47:02.534Z,23.95
2023-02-15T06:49:53.604Z,23.45
2023-02-15T06:52:35.612Z,22.95
2023-02-15T06:55:24.619Z,25.05
2023-02-15T06:58:12.594Z,23.85
2023-02-15T07:00:54.852Z,24.10
2023-02-15T07:03:43.667Z,24.33
2023-02-15T07:06:26.785Z,22.48
2023-02-15T07:09:14.693Z,24.38
2023-02-15T07:12:14.338Z,24.23
2023-02-15T07:15:02.626Z,22.98
2023-02-15T07:17:44.831Z,22.52
2023-02-15T07:20:33.625Z,22.60
2023-02-15T07:23:24.610Z,21.50
2023-02-15T07:26:07.491Z,22.70
2023-02-15T07:28:56.665Z,22.90
2023-02-15T07:31:38.523Z,22.08
2023-02-15T07:34:27.638Z,22.30
2023-02-15T07:37:09.614Z,23.52
2023-02-15T07:39:59.617Z,22.75
2023-02-15T07:42:41.569Z,23.95
2023-02-15T07:45:30.628Z,23.75
2023-02-15T07:48:25.649Z,23.73
2023-02-15T07:51:10.296Z,25.40
2023-02-15T07:53:58.696Z,23.20
2023-02-15T07:56:42.194Z,24.15
2023-02-15T07:59:31.607Z,25.58
2023-02-15T08:02:14.030Z,21.38
2023-02-15T08:05:02.714Z,23.52
2023-02-15T08:07:50.918Z,21.48
2023-02-15T08:10:52.651Z,22.58
2023-02-15T08:13:42.726Z,22.40
2023-02-15T08:16:24.961Z,23.25
2023-02-15T08:19:15.631Z,23.92
2023-02-15T08:21:58.971Z,21.38
2023-02-15T08:24:47.609Z,17.58
2023-02-15T08:27:31.635Z,20.00
2023-02-15T08:30:23.813Z,18.33
2023-02-15T08:33:06.197Z,16.83
2023-02-15T08:35:54.671Z,18.75
2023-02-15T08:38:36.820Z,18.63
2023-02-15T08:41:27.646Z,16.73
2023-02-15T08:44:11.977Z,16.92
2023-02-15T08:46:56.631Z,17.83
2023-02-15T08:49:44.643Z,17.15
2023-02-15T08:52:27.031Z,17.30
2023-02-15T08:55:15.642Z,16.73
2023-02-15T08:57:57.875Z,15.07
2023-02-15T09:00:47.496Z,14.98
2023-02-15T09:03:30.956Z,16.65
2023-02-15T09:06:19.690Z,15.30
2023-02-15T09:09:03.145Z,14.93
2023-02-15T09:11:57.879Z,15.82
2023-02-15T09:14:48.662Z,13.75
2023-02-15T09:17:30.631Z,14.00
2023-02-15T09:20:22.655Z,14.32
2023-02-15T09:23:04.702Z,14.80
2023-02-15T09:25:53.669Z,13.90
2023-02-15T09:28:36.186Z,14.68
2023-02-15T09:31:29.790Z,14.88
2023-02-15T09:34:11.842Z,14.02
2023-02-15T09:37:01.629Z,15.57
2023-02-15T09:39:58.733Z,14.55
2023-02-15T09:43:20.190Z,14.68
2023-02-15T09:46:25.744Z,15.30
2023-02-15T09:49:18.137Z,15.25
2023-02-15T09:52:28.748Z,15.57
2023-02-15T09:55:33.700Z,14.68
2023-02-15T09:58:23.855Z,14.80
2023-02-15T10:01:19.705Z,14.40
2023-02-15T10:04:18.188Z,14.23
2023-02-15T10:07:20.689Z,13.90
2023-02-15T10:10:17.532Z,15.35
2023-02-15T10:13:16.653Z,15.70
2023-02-15T10:16:08.960Z,14.40
2023-02-15T10:19:13.752Z,15.98
2023-02-15T10:22:17.768Z,15.77
2023-02-15T10:25:31.098Z,14.80
2023-02-15T10:28:21.657Z,16.17
2023-02-15T10:31:14.049Z,15.88
2023-02-15T10:34:08.664Z,16.83
2023-02-15T10:37:08.252Z,15.90
2023-02-15T10:40:08.759Z,15.35
2023-02-15T10:43:22.679Z,15.45
2023-02-15T10:46:13.329Z,14.73
2023-02-15T10:49:30.752Z,15.88
2023-02-15T10:52:25.212Z,16.05
2023-02-15T10:55:23.733Z,16.25
2023-02-15T10:58:18.692Z,16.48
2023-02-15T11:01:15.733Z,15.95
2023-02-15T11:04:26.661Z,16.00
2023-02-15T11:07:30.654Z,13.50
2023-02-15T11:10:34.685Z,16.33
2023-02-15T11:13:22.948Z,18.85
2023-02-15T11:16:13.770Z,16.23
2023-02-15T11:18:59.992Z,14.43
2023-02-15T11:21:51.664Z,16.60
2023-02-15T11:24:43.687Z,15.77
2023-02-15T11:27:29.180Z,17.35
2023-02-15T11:30:20.706Z,15.68
2023-02-15T11:33:07.036Z,16.27
2023-02-15T11:36:03.715Z,15.70
2023-02-15T11:38:49.188Z,16.80
2023-02-15T11:41:41.669Z,16.65
2023-02-15T11:44:27.426Z,16.92
2023-02-15T11:47:17.696Z,16.90
2023-02-15T11:50:00.258Z,18.13
2023-02-15T11:52:48.718Z,17.85
2023-02-15T11:55:37.697Z,15.75
2023-02-15T11:58:32.029Z,17.75
2023-02-15T12:01:25.697Z,18.08
2023-02-15T12:04:15.199Z,19.80
2023-02-15T12:07:06.691Z,17.50
2023-02-15T12:09:57.552Z,19.23
2023-02-15T12:12:46.769Z,18.88
2023-02-15T12:15:46.786Z,18.83
2023-02-15T12:18:38.795Z,18.15
2023-02-15T12:21:31.804Z,19.67
2023-02-15T12:24:22.557Z,18.17
2023-02-15T12:27:14.781Z,18.27
2023-02-15T12:30:02.128Z,18.25
2023-02-15T12:33:01.714Z,18.00
2023-02-15T12:35:45.297Z,20.98
2023-02-15T12:38:40.689Z,19.17
2023-02-15T12:41:32.830Z,19.17
2023-02-15T12:44:26.869Z,20.80
2023-02-15T12:47:29.772Z,20.27
2023-02-15T12:50:19.959Z,19.02
2023-02-15T12:53:16.690Z,32.55
2023-02-15T12:56:03.743Z,18.30
2023-02-15T12:58:53.776Z,19.33
2023-02-15T13:01:41.438Z,18.52
2023-02-15T13:04:33.800Z,18.88
2023-02-15T13:07:28.717Z,18.77
2023-02-15T13:10:25.527Z,18.75
2023-02-15T13:13:15.801Z,18.60
2023-02-15T13:16:01.272Z,19.20
2023-02-15T13:18:53.714Z,19.33
2023-02-15T13:21:41.419Z,17.00
2023-02-15T13:24:35.707Z,19.17
2023-02-15T13:27:20.860Z,17.80
2023-02-15T13:30:13.813Z,18.35
2023-02-15T13:33:06.820Z,18.90
2023-02-15T13:35:55.980Z,19.85
2023-02-15T13:39:08.785Z,18.83
2023-02-15T13:42:00.001Z,19.88
2023-02-15T13:45:08.757Z,19.65
2023-02-15T13:48:05.819Z,20.50
2023-02-15T13:51:09.905Z,20.40
2023-02-15T13:54:05.763Z,20.45
2023-02-15T13:56:57.611Z,20.67
2023-02-15T14:00:12.005Z,20.55
2023-02-15T14:03:26.811Z,21.52
2023-02-15T14:06:35.819Z,19.35
2023-02-15T14:09:37.142Z,20.38
2023-02-15T14:12:56.099Z,20.38
2023-02-15T14:15:52.852Z,22.10
2023-02-15T14:18:44.059Z,19.23
2023-02-15T14:21:39.759Z,20.40
2023-02-15T14:24:34.069Z,20.70
2023-02-15T14:27:33.805Z,21.38
2023-02-15T14:30:33.820Z,21.75
2023-02-15T14:33:35.634Z,22.80
2023-02-15T14:36:35.782Z,21.52
2023-02-15T14:39:46.295Z,21.30
2023-02-15T14:42:40.722Z,22.02
2023-02-15T14:45:30.962Z,21.73
2023-02-15T14:48:27.805Z,21.75
2023-02-15T14:51:18.950Z,23.75
2023-02-15T14:54:00.962Z,23.13
2023-02-15T14:56:48.737Z,23.95
2023-02-15T14:59:33.324Z,23.42
2023-02-15T15:02:25.734Z,22.48
2023-02-15T15:05:16.076Z,24.65
2023-02-15T15:08:12.777Z,21.48
2023-02-15T15:10:56.588Z,22.50
2023-02-15T15:14:00.774Z,24.58
2023-02-15T15:16:58.044Z,26.48
2023-02-15T15:20:21.778Z,24.27
2023-02-15T15:23:58.813Z,24.48
2023-02-15T15:26:49.509Z,22.95
2023-02-15T15:29:48.764Z,24.00
2023-02-15T15:32:40.089Z,26.17
2023-02-15T15:35:36.806Z,25.23
2023-02-15T15:38:48.762Z,28.60
2023-02-15T15:41:42.879Z,26.08
2023-02-15T15:45:08.245Z,24.83
2023-02-15T15:48:07.391Z,25.85
2023-02-15T15:50:58.774Z,25.55
2023-02-15T15:53:43.740Z,23.88
2023-02-15T15:56:37.834Z,24.10
2023-02-15T15:59:23.627Z,26.77
2023-02-15T16:02:19.826Z,24.90
2023-02-15T16:05:15.768Z,25.20
2023-02-15T16:08:04.050Z,26.50
2023-02-15T16:10:46.765Z,24.58
2023-02-15T16:13:29.096Z,25.08
2023-02-15T16:16:19.845Z,25.35
2023-02-15T16:19:01.967Z,23.83
2023-02-15T16:21:52.811Z,23.52
2023-02-15T16:24:43.172Z,22.38
2023-02-15T16:27:55.786Z,23.25
2023-02-15T16:30:46.824Z,24.73
2023-02-15T16:33:30.001Z,21.42
2023-02-15T16:36:20.814Z,24.35
2023-02-15T16:39:18.035Z,24.58
2023-02-15T16:42:09.886Z,23.80
2023-02-15T16:44:53.032Z,23.90
2023-02-15T16:47:49.801Z,51.05
2023-02-15T16:50:39.084Z,23.08
2023-02-15T16:53:32.775Z,24.70
2023-02-15T16:56:23.842Z,24.30
2023-02-15T16:59:05.965Z,24.67
2023-02-15T17:01:58.908Z,25.77
2023-02-15T17:04:40.927Z,25.55
2023-02-15T17:07:33.854Z,24.52
2023-02-15T17:10:30.690Z,26.00
2023-02-15T17:13:25.833Z,23.63
2023-02-15T17:16:29.731Z,24.17
2023-02-15T17:19:25.840Z,24.65
2023-02-15T17:22:15.860Z,25.02
2023-02-15T17:25:07.066Z,26.70
2023-02-15T17:28:00.894Z,25.35
2023-02-15T17:30:47.210Z,27.48
2023-02-15T17:33:46.801Z,26.80
2023-02-15T17:36:31.089Z,26.13
2023-02-15T17:39:29.774Z,26.65
2023-02-15T17:42:13.074Z,27.70
2023-02-15T17:45:01.803Z,27.23
2023-02-15T17:47:50.811Z,26.73
2023-02-15T17:50:33.233Z,24.17
2023-02-15T17:53:23.932Z,36.92
2023-02-15T17:56:10.725Z,28.30
2023-02-15T17:59:01.854Z,26.73
2023-02-15T18:02:04.811Z,26.63
2023-02-15T18:05:10.819Z,27.48
2023-02-15T18:08:23.837Z,30.20
2023-02-15T18:11:29.822Z,23.42
2023-02-15T18:14:20.856Z,27.13
2023-02-15T18:17:02.824Z,29.70
2023-02-15T18:19:52.879Z,28.52
2023-02-15T18:22:38.030Z,26.42
2023-02-15T18:25:27.851Z,25.77
2023-02-15T18:28:10.462Z,30.55
2023-02-15T18:31:01.098Z,25.60
2023-02-15T18:36:36.850Z,27.48
2023-02-15T18:39:33.839Z,23.33
2023-02-15T18:42:27.677Z,23.60
2023-02-15T18:45:25.461Z,24.02
2023-02-15T18:48:08.371Z,25.48
2023-02-15T18:50:55.874Z,24.23
2023-02-15T18:53:38.424Z,27.40
2023-02-15T18:56:27.866Z,25.38
2023-02-15T18:59:10.170Z,27.20
2023-02-15T19:01:58.846Z,26.55
2023-02-15T19:04:48.865Z,25.83
2023-02-15T19:07:47.835Z,29.05
2023-02-15T19:10:38.917Z,25.90
2023-02-15T19:13:22.093Z,33.15
2023-02-15T19:16:10.940Z,29.02
2023-02-15T19:18:53.080Z,25.92
2023-02-15T19:21:42.925Z,28.33
2023-02-15T19:24:29.027Z,29.67
2023-02-15T19:27:28.857Z,30.63
2023-02-15T19:30:22.906Z,34.00
2023-02-15T19:33:05.161Z,25.15
2023-02-15T19:35:53.839Z,27.10
2023-02-15T19:38:37.301Z,25.90
2023-02-15T19:41:32.946Z,26.73
2023-02-15T19:44:14.836Z,24.40
2023-02-15T19:47:03.844Z,29.77
2023-02-15T19:49:45.866Z,25.27
2023-02-15T19:52:36.934Z,26.00
2023-02-15T19:55:33.856Z,27.70
2023-02-15T19:58:20.154Z,26.05
2023-02-15T20:01:08.998Z,25.73
2023-02-15T20:03:54.658Z,25.25
2023-02-15T20:06:41.893Z,25.13
2023-02-15T20:09:35.491Z,26.23
2023-02-15T20:12:27.888Z,23.25
2023-02-15T20:15:19.849Z,25.00
2023-02-15T20:18:08.890Z,23.83
2023-02-15T20:20:59.914Z,24.50
2023-02-15T20:23:43.138Z,25.15
2023-02-15T20:26:35.977Z,24.67
2023-02-15T20:29:22.135Z,24.02
2023-02-15T20:32:09.967Z,24.17
2023-02-15T20:34:52.187Z,22.70
2023-02-15T20:37:40.863Z,24.05
2023-02-15T20:40:25.050Z,24.80
2023-02-15T20:43:19.873Z,22.70
2023-02-15T20:46:09.903Z,26.30
2023-02-15T20:48:52.007Z,23.58
2023-02-15T20:51:41.017Z,25.00
2023-02-15T20:54:24.371Z,24.92
2023-02-15T20:57:14.028Z,23.75
2023-02-15T20:59:55.816Z,25.45
2023-02-15T21:02:45.901Z,23.25
2023-02-15T21:05:30.222Z,23.23
2023-02-15T21:08:29.902Z,23.58
2023-02-15T21:11:32.893Z,24.13
2023-02-15T21:14:18.924Z,24.25
2023-02-15T21:17:07.973Z,25.58
2023-02-15T21:19:51.634Z,25.73
2023-02-15T21:22:39.969Z,23.30
2023-02-15T21:25:27.010Z,24.67
2023-02-15T21:28:15.904Z,23.70
2023-02-15T21:30:59.251Z,24.83
2023-02-15T21:33:47.926Z,25.92
2023-02-15T21:36:45.879Z,23.30
2023-02-15T21:39:30.394Z,25.45
2023-02-15T21:42:42.971Z,23.75
2023-02-15T21:45:42.773Z,25.50
2023-02-15T21:48:31.982Z,24.52
2023-02-15T21:51:31.295Z,24.08
2023-02-15T21:54:20.937Z,22.70
2023-02-15T21:57:03.605Z,21.67
2023-02-15T21:59:52.937Z,26.60
2023-02-15T22:02:34.822Z,24.98
2023-02-15T22:05:28.874Z,23.98
2023-02-15T22:08:29.971Z,25.58
2023-02-15T22:11:22.909Z,24.55
2023-02-15T22:14:07.518Z,29.20
2023-02-15T22:16:55.972Z,22.27
2023-02-15T22:19:45.877Z,23.42
2023-02-15T22:22:30.140Z,24.13
2023-02-15T22:25:18.961Z,23.52
2023-02-15T22:28:02.433Z,41.22
2023-02-15T22:30:51.892Z,23.25
2023-02-15T22:33:41.976Z,22.83
2023-02-15T22:36:31.123Z,23.55
2023-02-15T22:39:19.902Z,24.40
2023-02-15T22:42:03.171Z,24.85
2023-02-15T22:44:55.967Z,23.13
2023-02-15T22:47:38.168Z,23.08
2023-02-15T22:50:28.927Z,22.80
2023-02-15T22:53:12.080Z,22.88
2023-02-15T22:56:01.893Z,23.02
2023-02-15T22:58:50.960Z,22.73
2023-02-15T23:01:36.991Z,21.98
2023-02-15T23:04:31.064Z,23.25
2023-02-15T23:07:29.907Z,25.00
2023-02-15T23:10:27.909Z,24.00
2023-02-15T23:13:25.773Z,23.60
2023-02-15T23:16:20.949Z,24.70
2023-02-15T23:19:10.917Z,24.05
2023-02-15T23:21:53.451Z,24.75
2023-02-15T23:24:43.981Z,24.73
2023-02-15T23:27:43.407Z,24.02
2023-02-15T23:30:32.048Z,24.33
2023-02-15T23:33:14.108Z,24.27
2023-02-15T23:36:04.967Z,23.42
2023-02-15T23:38:46.894Z,23.08
2023-02-15T23:41:37.910Z,25.80
2023-02-15T23:44:29.953Z,24.70
2023-02-15T23:47:12.145Z,23.67
2023-02-15T23:50:00.900Z,23.50
2023-02-15T23:52:47.355Z,23.50
2023-02-15T23:55:42.892Z,26.25
2023-02-15T23:58:33.940Z,25.50
